Time;durP1;ratioP1;P1;durP2;ratioP2;P2;SDS_P1;SDS_P2;PMS_P1;PMS_P2;Temp;Humidity;BMP_temperature;BMP_pressure;BME280_temperature;BME280_humidity;BME280_pressure;Samples;Min_cycle;Max_cycle;Signal;HPM_P1;HPM_P2
2022/01/25 00:08:28;;;;;;;75.30;41.30;;;;;;;1.56;82.56;101827.13;88221;1275;82551;-68
2022/01/25 00:15:03;;;;;;;75.90;42.30;;;;;;;1.53;82.63;101825.05;88184;1276;97804;-74
2022/01/25 00:25:57;;;;;;;67.70;38.00;;;;;;;1.44;82.71;101816.18;87967;1281;87763;-74
2022/01/25 00:28:19;;;;;;;60.30;35.20;;;;;;;1.51;82.75;101815.91;87942;1281;93357;-74
2022/01/25 00:30:42;;;;;;;68.40;38.80;;;;;;;1.52;82.82;101814.24;87966;1281;76475;-74
2022/01/25 00:32:54;;;;;;;66.40;38.10;;;;;;;1.55;82.82;101807.52;87976;1281;81155;-74
2022/01/25 00:35:07;;;;;;;68.10;39.10;;;;;;;1.57;82.89;101800.13;88175;1274;98596;-74
2022/01/25 00:37:16;;;;;;;68.90;39.90;;;;;;;1.61;82.89;101797.17;88217;1274;89440;-75
2022/01/25 00:39:25;;;;;;;75.40;40.90;;;;;;;1.62;82.92;101792.81;88189;1276;93903;-68
2022/01/25 00:41:39;;;;;;;68.70;37.80;;;;;;;1.60;83.01;101787.45;88198;1274;81123;-68
2022/01/25 00:43:49;;;;;;;72.00;38.40;;;;;;;1.56;82.91;101786.49;88219;1276;80555;-68
2022/01/25 00:46:00;;;;;;;71.70;38.50;;;;;;;1.54;83.00;101781.33;88219;1274;99026;-74
2022/01/25 00:48:19;;;;;;;65.30;36.90;;;;;;;1.55;83.16;101781.60;88219;1275;88256;-74
2022/01/25 00:50:38;;;;;;;70.20;38.00;;;;;;;1.56;83.19;101778.52;88143;1276;94991;-73
2022/01/25 00:55:18;;;;;;;67.60;36.50;;;;;;;1.60;83.26;101781.98;88239;1276;81595;-69
2022/01/25 00:57:29;;;;;;;65.50;36.50;;;;;;;1.63;83.40;101781.60;88186;1274;99847;-68
2022/01/25 00:59:42;;;;;;;65.20;36.10;;;;;;;1.66;83.29;101778.58;88217;1275;88410;-74
2022/01/25 01:01:58;;;;;;;68.10;37.30;;;;;;;1.71;83.36;101776.98;88141;1276;96325;-74
2022/01/25 01:04:12;;;;;;;69.40;37.20;;;;;;;1.74;83.27;101778.02;88207;1274;77335;-68
2022/01/25 01:06:22;;;;;;;63.30;35.30;;;;;;;1.78;83.31;101771.72;88217;1274;81169;-68
2022/01/25 01:08:35;;;;;;;69.00;37.80;;;;;;;1.80;83.24;101774.29;88200;1275;99174;-68
2022/01/25 01:10:46;;;;;;;70.60;40.30;;;;;;;1.79;83.32;101770.98;88186;1274;88117;-68
2022/01/25 01:15:32;;;;;;;72.80;36.60;;;;;;;1.67;83.36;101769.44;88210;1274;82291;-68
2022/01/25 01:30:14;;;;;;;65.60;35.40;;;;;;;1.72;83.71;101751.17;88186;1275;83776;-74
2022/01/25 01:33:07;;;;;;;64.90;34.90;;;;;;;1.70;83.63;101751.98;88168;1275;96701;-74
2022/01/25 01:37:51;;;;;;;70.80;38.40;;;;;;;1.72;83.75;101751.52;88136;1274;95280;-67
2022/01/25 01:40:21;;;;;;;73.40;37.80;;;;;;;1.71;83.70;101747.67;88184;1275;78707;-67
2022/01/25 01:45:12;;;;;;;66.10;35.80;;;;;;;1.62;83.58;101739.38;88134;1276;97729;-65
2022/01/25 01:47:33;;;;;;;74.40;35.90;;;;;;;1.59;83.77;101730.91;88148;1274;88312;-67
2022/01/25 01:49:45;;;;;;;65.90;34.80;;;;;;;1.62;83.81;101729.42;88121;1274;95410;-74
2022/01/25 01:51:54;;;;;;;69.20;36.40;;;;;;;1.60;83.78;101731.02;88132;1275;80970;-74
2022/01/25 01:54:07;;;;;;;66.10;34.90;;;;;;;1.64;83.92;101730.38;88189;1274;81603;-66
2022/01/25 01:56:16;;;;;;;67.80;33.60;;;;;;;1.69;83.87;101728.95;88159;1274;98236;-66
2022/01/25 01:58:25;;;;;;;71.10;34.60;;;;;;;1.74;83.84;101722.98;88138;1275;89212;-68
2022/01/25 02:00:40;;;;;;;64.20;36.20;;;;;;;1.75;84.01;101722.92;88166;1274;94910;-66
2022/01/25 02:02:52;;;;;;;65.10;35.20;;;;;;;1.78;84.01;101719.88;88161;1274;79710;-66
2022/01/25 02:05:01;;;;;;;68.30;35.50;;;;;;;1.77;84.10;101718.51;88186;1274;82500;-66
2022/01/25 02:07:14;;;;;;;70.80;35.50;;;;;;;1.78;83.90;101715.95;88159;1274;99999;-66
2022/01/25 02:09:23;;;;;;;67.40;36.20;;;;;;;1.76;83.87;101722.30;88203;1275;89309;-66
2022/01/25 02:11:32;;;;;;;65.30;33.90;;;;;;;1.73;83.97;101718.77;88150;1274;93284;-65
2022/01/25 02:13:43;;;;;;;58.90;32.10;;;;;;;1.72;83.98;101717.25;88166;1274;80092;-66
2022/01/25 02:15:57;;;;;;;62.70;31.80;;;;;;;1.73;84.05;101714.49;88166;1275;80154;-66
2022/01/25 02:23:21;;;;;;;55.40;30.50;;;;;;;1.72;84.19;101712.13;88121;1274;95486;-67
2022/01/25 02:25:31;;;;;;;63.40;30.40;;;;;;;1.75;84.12;101713.11;88135;1275;80073;-67
2022/01/25 02:27:44;;;;;;;57.30;30.90;;;;;;;1.78;84.08;101707.45;88164;1274;81639;-67
2022/01/25 02:29:53;;;;;;;57.30;30.10;;;;;;;1.84;84.12;101701.23;88175;1274;98393;-72
2022/01/25 02:32:04;;;;;;;56.40;29.30;;;;;;;1.87;84.27;101697.83;88176;1274;89141;-73
2022/01/25 02:34:14;;;;;;;60.80;31.20;;;;;;;1.86;84.03;101692.02;88138;1275;94651;-69
2022/01/25 02:36:29;;;;;;;55.20;30.40;;;;;;;1.84;84.06;101685.25;88143;1276;78537;-67
2022/01/25 02:38:39;;;;;;;54.60;28.50;;;;;;;1.80;84.14;101683.88;88245;1275;82769;-67
2022/01/25 02:40:50;;;;;;;53.40;28.70;;;;;;;1.76;84.03;101682.73;88151;1276;98512;-69
2022/01/25 02:43:04;;;;;;;55.40;28.70;;;;;;;1.72;84.13;101687.05;88011;1277;89521;-68
2022/01/25 02:45:17;;;;;;;54.90;29.50;;;;;;;1.72;84.16;101687.98;88188;1275;95950;-74
2022/01/25 02:49:59;;;;;;;48.80;26.40;;;;;;;1.75;84.21;101688.80;88192;1274;81195;-68
2022/01/25 02:52:09;;;;;;;49.60;26.90;;;;;;;1.76;84.15;101691.23;88145;1275;97665;-74
2022/01/25 02:54:22;;;;;;;47.30;25.30;;;;;;;1.77;84.22;101684.41;88137;1274;88174;-68
2022/01/25 02:56:36;;;;;;;47.40;25.70;;;;;;;1.80;84.25;101690.12;88198;1274;95234;-74
2022/01/25 02:58:45;;;;;;;47.90;25.90;;;;;;;1.77;84.36;101690.63;88190;1274;78759;-69
2022/01/25 03:00:55;;;;;;;49.90;26.10;;;;;;;1.78;84.28;101685.21;88185;1275;80765;-74
2022/01/25 03:03:04;;;;;;;47.90;26.70;;;;;;;1.83;84.32;101679.11;88175;1275;98519;-68
2022/01/25 03:05:16;;;;;;;49.90;27.00;;;;;;;1.87;84.21;101678.83;88187;1274;89679;-69
2022/01/25 03:07:28;;;;;;;50.60;27.30;;;;;;;1.87;84.17;101674.03;88161;1274;96007;-69
2022/01/25 03:09:39;;;;;;;48.60;26.30;;;;;;;1.88;84.30;101675.02;88180;1276;79294;-73
2022/01/25 03:11:55;;;;;;;53.40;27.50;;;;;;;1.84;84.07;101671.01;88151;1274;82469;-68
2022/01/25 03:14:09;;;;;;;50.70;26.60;;;;;;;1.78;84.21;101667.83;88177;1274;100373;-67
2022/01/25 03:16:30;;;;;;;48.70;25.70;;;;;;;1.79;84.23;101664.24;88164;1275;87809;-67
2022/01/25 03:18:44;;;;;;;48.70;24.30;;;;;;;1.74;84.34;101662.44;88150;1275;95043;-73
2022/01/25 03:21:01;;;;;;;47.60;25.00;;;;;;;1.73;84.29;101651.29;88147;1274;80676;-68
2022/01/25 03:23:19;;;;;;;47.60;26.10;;;;;;;1.81;84.49;101645.12;88092;1276;80324;-67
2022/01/25 03:25:32;;;;;;;45.50;25.40;;;;;;;1.81;84.50;101650.06;88174;1275;99118;-73
2022/01/25 03:27:42;;;;;;;44.70;24.60;;;;;;;1.83;84.49;101651.39;88179;1274;88509;-73
2022/01/25 03:29:53;;;;;;;49.00;26.50;;;;;;;1.89;84.46;101644.95;88200;1275;94820;-67
2022/01/25 03:32:03;;;;;;;49.60;26.10;;;;;;;1.88;84.50;101635.75;88176;1274;79684;-67
2022/01/25 03:34:14;;;;;;;49.90;26.40;;;;;;;1.88;84.42;101632.70;88169;1276;83377;-74
2022/01/25 03:36:24;;;;;;;52.70;28.30;;;;;;;1.87;84.36;101636.20;88176;1274;99909;-73
2022/01/25 03:38:39;;;;;;;47.20;25.90;;;;;;;1.82;84.44;101635.45;88180;1274;89052;-72
2022/01/25 03:40:48;;;;;;;47.80;24.80;;;;;;;1.72;84.46;101627.63;88146;1275;93931;-73
2022/01/25 03:43:00;;;;;;;45.50;24.30;;;;;;;1.70;84.55;101631.44;88161;1275;81424;-73
2022/01/25 03:45:18;;;;;;;49.40;23.90;;;;;;;1.68;84.46;101633.35;88118;1276;83641;-67
2022/01/25 03:47:44;;;;;;;47.80;24.30;;;;;;;1.71;84.60;101635.47;88137;1276;100419;-68
2022/01/25 03:49:53;;;;;;;45.10;23.10;;;;;;;1.71;84.47;101640.29;88151;1275;88797;-74
2022/01/25 03:52:03;;;;;;;45.30;24.10;;;;;;;1.70;84.68;101638.00;88132;1275;94504;-74
2022/01/25 03:54:13;;;;;;;47.00;23.40;;;;;;;1.71;84.75;101635.27;88208;1274;79142;-67
2022/01/25 03:56:25;;;;;;;43.80;22.40;;;;;;;1.71;84.80;101633.70;88182;1274;80751;-67
2022/01/25 03:58:36;;;;;;;47.50;23.90;;;;;;;1.74;84.62;101629.42;88175;1276;97391;-74
2022/01/25 04:00:48;;;;;;;46.00;23.40;;;;;;;1.74;84.67;101624.79;88176;1274;89691;-74
2022/01/25 04:03:06;;;;;;;45.70;22.70;;;;;;;1.75;84.65;101618.99;88141;1274;95285;-74
2022/01/25 04:05:21;;;;;;;45.50;23.60;;;;;;;1.79;84.67;101621.29;88144;1274;79621;-73
2022/01/25 04:07:43;;;;;;;47.80;25.00;;;;;;;1.81;84.65;101616.15;88162;1274;80292;-74
2022/01/25 04:09:53;;;;;;;49.00;23.70;;;;;;;1.82;84.59;101613.77;88172;1274;100139;-67
2022/01/25 04:12:08;;;;;;;43.10;21.40;;;;;;;1.84;84.61;101613.48;88162;1274;89381;-67
2022/01/25 04:14:17;;;;;;;46.30;24.50;;;;;;;1.86;84.55;101611.02;88172;1274;95975;-73
2022/01/25 04:16:32;;;;;;;43.90;22.60;;;;;;;1.88;84.50;101593.29;88173;1274;78891;-74
2022/01/25 04:18:57;;;;;;;46.10;23.40;;;;;;;1.94;84.66;101583.09;88175;1274;83559;-67
2022/01/25 04:21:24;;;;;;;40.80;22.20;;;;;;;1.96;84.56;101578.34;88146;1274;97692;-66
2022/01/25 04:26:03;;;;;;;43.30;22.00;;;;;;;1.96;84.70;101568.91;88126;1275;94293;-66
2022/01/25 04:28:13;;;;;;;40.90;21.80;;;;;;;2.01;84.66;101565.77;88147;1274;78761;-66
2022/01/25 04:30:23;;;;;;;43.70;22.30;;;;;;;1.98;84.62;101565.64;88174;1274;80224;-72
2022/01/25 04:32:35;;;;;;;49.30;24.70;;;;;;;1.96;84.66;101565.39;88174;1275;99409;-73
2022/01/25 04:34:47;;;;;;;46.80;24.70;;;;;;;1.95;84.61;101566.70;88156;1274;87851;-67
2022/01/25 04:48:52;;;;;;;49.60;25.80;;;;;;;1.93;84.64;101575.39;88149;1274;96129;-67
2022/01/25 04:49:23;;;;;;;42.70;20.70;;;;;;;1.85;84.73;101548.40;88129;1277;95409;-66
2022/01/25 04:54:04;;;;;;;46.30;20.80;;;;;;;1.78;84.91;101556.10;88172;1274;81100;-66
2022/01/25 04:56:20;;;;;;;40.50;20.60;;;;;;;1.82;84.96;101555.39;88139;1274;98230;-66
2022/01/25 04:58:37;;;;;;;36.30;18.70;;;;;;;1.85;85.03;101540.42;88155;1275;88676;-71
2022/01/25 05:00:48;;;;;;;39.80;21.20;;;;;;;1.87;85.00;101536.71;88149;1275;94739;-72
2022/01/25 05:03:09;;;;;;;43.20;21.00;;;;;;;1.90;84.95;101531.36;88133;1275;80673;-74
2022/01/25 05:05:29;;;;;;;36.50;19.50;;;;;;;1.91;84.86;101539.62;88154;1275;81616;-74
2022/01/25 05:07:44;;;;;;;34.90;18.60;;;;;;;1.85;84.99;101534.38;88149;1275;100153;-73
2022/01/25 05:09:55;;;;;;;37.80;19.40;;;;;;;1.83;85.12;101535.55;88170;1275;89141;-68
2022/01/25 05:12:11;;;;;;;35.10;19.00;;;;;;;1.83;85.05;101536.14;88175;1274;94375;-66
2022/01/25 05:14:24;;;;;;;34.90;18.30;;;;;;;1.85;85.10;101529.05;88124;1275;80490;-73
2022/01/25 05:16:34;;;;;;;35.90;18.50;;;;;;;1.89;85.07;101528.59;88115;1277;81042;-73
2022/01/25 05:18:46;;;;;;;35.60;19.30;;;;;;;1.90;85.10;101528.32;88122;1274;98900;-73
2022/01/25 05:23:26;;;;;;;32.20;18.20;;;;;;;1.97;85.02;101536.73;88137;1272;93924;-69
2022/01/25 05:25:35;;;;;;;32.60;17.70;;;;;;;2.05;85.09;101533.13;88125;1274;82655;-66
2022/01/25 05:27:47;;;;;;;32.30;16.50;;;;;;;2.06;85.10;101527.92;88155;1274;81692;-66
2022/01/25 05:29:57;;;;;;;32.10;16.30;;;;;;;2.09;85.12;101527.67;88133;1275;99122;-73
2022/01/25 05:32:11;;;;;;;34.00;18.60;;;;;;;2.12;85.08;101530.86;88155;1275;88300;-74
2022/01/25 05:34:21;;;;;;;33.70;17.70;;;;;;;2.12;85.11;101526.91;88166;1277;93647;-66
2022/01/25 05:36:38;;;;;;;32.10;17.50;;;;;;;2.09;85.00;101522.38;88140;1274;78393;-67
2022/01/25 05:38:48;;;;;;;31.30;17.00;;;;;;;2.07;84.86;101525.02;88169;1275;80685;-73
2022/01/25 05:40:59;;;;;;;34.20;18.90;;;;;;;2.05;85.00;101524.43;88134;1274;100387;-73
2022/01/25 05:45:58;;;;;;;34.10;17.90;;;;;;;2.02;85.15;101522.51;88152;1274;95739;-74
2022/01/25 05:48:08;;;;;;;36.00;19.00;;;;;;;2.01;85.11;101522.72;88141;1274;79940;-73
2022/01/25 05:50:17;;;;;;;31.50;17.60;;;;;;;2.04;85.20;101525.92;88195;1274;83041;-67
2022/01/25 05:52:27;;;;;;;32.50;18.80;;;;;;;2.01;85.02;101531.25;88171;1274;99650;-66
2022/01/25 05:54:36;;;;;;;32.70;18.30;;;;;;;2.03;85.01;101527.03;88145;1274;88420;-74
2022/01/25 05:56:45;;;;;;;36.90;19.20;;;;;;;2.07;85.16;101522.14;88180;1274;93369;-75
2022/01/25 05:58:55;;;;;;;39.50;20.00;;;;;;;2.10;85.11;101518.23;88152;1275;78751;-74
2022/01/25 06:01:08;;;;;;;37.80;19.00;;;;;;;2.11;85.12;101523.11;88164;1275;82490;-74
2022/01/25 06:03:18;;;;;;;38.00;19.50;;;;;;;2.06;85.15;101527.20;88176;1276;99767;-74
2022/01/25 06:05:31;;;;;;;38.10;20.70;;;;;;;2.06;85.17;101525.07;88179;1274;87688;-74
2022/01/25 06:07:41;;;;;;;39.90;20.20;;;;;;;2.08;85.12;101521.52;88131;1277;96327;-75
2022/01/25 06:09:51;;;;;;;39.10;20.10;;;;;;;2.08;85.18;101522.27;88131;1276;80664;-66
2022/01/25 06:12:01;;;;;;;42.00;20.70;;;;;;;2.10;85.22;101518.36;88171;1277;83734;-66
2022/01/25 06:14:10;;;;;;;39.70;19.20;;;;;;;2.11;85.19;101518.65;88189;1272;98987;-67
2022/01/25 06:16:19;;;;;;;39.40;19.90;;;;;;;2.10;85.07;101520.00;88130;1274;88329;-67
2022/01/25 06:18:29;;;;;;;39.30;21.10;;;;;;;2.08;85.16;101514.61;88198;1274;93573;-67
2022/01/25 06:20:39;;;;;;;40.10;20.30;;;;;;;2.08;85.20;101515.70;88135;1276;78443;-65
2022/01/25 06:22:49;;;;;;;43.10;21.70;;;;;;;2.08;85.14;101517.77;88193;1274;82235;-80
2022/01/25 06:25:02;;;;;;;45.70;22.20;;;;;;;2.09;85.12;101519.87;88172;1274;97181;-66
2022/01/25 06:27:14;;;;;;;40.20;21.60;;;;;;;2.13;85.20;101518.02;88224;1274;89471;-79
2022/01/25 06:29:24;;;;;;;38.70;20.30;;;;;;;2.14;85.22;101516.52;88230;1274;96397;-78
2022/01/25 06:31:34;;;;;;;41.00;19.70;;;;;;;2.13;85.09;101511.08;88214;1274;81399;-67
2022/01/25 06:33:43;;;;;;;40.40;21.40;;;;;;;2.13;85.21;101508.04;88198;1274;81784;-79
2022/01/25 06:35:56;;;;;;;41.60;21.40;;;;;;;2.12;85.14;101506.00;88175;1274;99739;-75
2022/01/25 06:38:09;;;;;;;41.50;21.50;;;;;;;2.10;85.19;101502.58;88211;1274;87726;-74
2022/01/25 06:40:18;;;;;;;40.40;20.70;;;;;;;2.08;85.16;101499.17;88217;1274;95635;-72
2022/01/25 06:42:30;;;;;;;40.80;21.10;;;;;;;2.08;85.11;101500.37;88118;1276;82323;-67
2022/01/25 06:44:39;;;;;;;41.40;20.50;;;;;;;2.08;85.19;101495.77;88165;1276;81495;-77
2022/01/25 06:46:51;;;;;;;35.60;18.70;;;;;;;2.10;85.42;101488.70;88225;1274;100195;-83
2022/01/25 06:49:00;;;;;;;37.80;19.80;;;;;;;2.11;85.31;101488.80;88274;1274;89549;-66
2022/01/25 06:51:10;;;;;;;36.80;19.30;;;;;;;2.15;85.20;101483.72;88200;1274;93723;-66
2022/01/25 06:53:20;;;;;;;41.70;20.20;;;;;;;2.13;85.27;101479.77;88181;1274;81401;-66
2022/01/25 06:55:30;;;;;;;37.30;18.90;;;;;;;2.13;85.22;101483.36;88207;1277;82583;-76
2022/01/25 06:57:40;;;;;;;39.30;20.20;;;;;;;2.14;85.26;101480.23;88251;1274;99919;-78
2022/01/25 06:59:53;;;;;;;37.50;19.60;;;;;;;2.14;85.22;101477.19;88197;1274;89918;-66
2022/01/25 07:02:02;;;;;;;38.30;20.10;;;;;;;2.15;85.23;101479.64;88196;1274;94768;-69
2022/01/25 07:04:14;;;;;;;40.00;19.60;;;;;;;2.16;85.26;101483.16;88181;1274;78704;-77
2022/01/25 07:06:24;;;;;;;41.40;21.10;;;;;;;2.18;85.26;101484.08;88221;1274;82257;-78
2022/01/25 07:08:37;;;;;;;37.00;20.50;;;;;;;2.17;85.20;101482.51;88333;1274;99404;-77
2022/01/25 07:10:46;;;;;;;39.30;20.60;;;;;;;2.19;85.25;101482.89;88373;1274;89066;-78
2022/01/25 07:12:56;;;;;;;39.20;21.40;;;;;;;2.24;85.31;101490.04;88246;1274;94539;-79
2022/01/25 07:15:07;;;;;;;36.10;19.60;;;;;;;2.25;85.23;101485.09;88180;1274;79868;-78
2022/01/25 07:17:16;;;;;;;35.90;20.10;;;;;;;2.26;85.35;101486.31;88194;1274;81384;-78
2022/01/25 07:19:26;;;;;;;33.90;18.40;;;;;;;2.27;85.31;101482.17;88232;1274;100576;-76
2022/01/25 07:21:35;;;;;;;33.90;18.90;;;;;;;2.30;85.53;101481.40;88221;1274;89658;-79
2022/01/25 07:23:46;;;;;;;96.20;49.90;;;;;;;2.33;85.18;101482.06;88233;1274;94078;-78
2022/01/25 07:25:58;;;;;;;135.20;69.00;;;;;;;2.35;85.34;101485.66;88202;1274;78228;-79
2022/01/25 07:28:08;;;;;;;40.90;21.90;;;;;;;2.37;85.37;101488.52;88211;1274;81567;-79
2022/01/25 07:30:21;;;;;;;33.50;18.90;;;;;;;2.35;85.47;101487.77;88183;1274;98280;-81
2022/01/25 07:32:30;;;;;;;35.10;18.70;;;;;;;2.36;85.39;101487.88;88201;1274;88581;-80
2022/01/25 07:34:42;;;;;;;31.70;18.50;;;;;;;2.39;85.35;101484.11;88187;1274;95343;-79
2022/01/25 07:36:52;;;;;;;34.40;18.50;;;;;;;2.43;85.30;101474.60;88147;1276;81686;-80
2022/01/25 07:39:03;;;;;;;34.10;18.50;;;;;;;2.45;85.38;101471.57;88222;1274;80304;-65
2022/01/25 07:41:33;;;;;;;33.60;18.60;;;;;;;2.47;85.38;101476.95;88137;1274;99442;-77
2022/01/25 07:43:45;;;;;;;33.80;18.70;;;;;;;2.52;85.40;101483.71;88126;1274;89496;-65
2022/01/25 07:45:57;;;;;;;36.00;19.20;;;;;;;2.51;85.34;101478.23;88165;1274;95822;-79
2022/01/25 07:48:08;;;;;;;31.00;18.70;;;;;;;2.53;85.38;101471.72;88161;1274;79996;-79
2022/01/25 07:50:21;;;;;;;36.50;19.70;;;;;;;2.53;85.38;101475.79;88232;1274;80864;-77
2022/01/25 07:52:32;;;;;;;32.70;19.20;;;;;;;2.54;85.32;101472.73;88190;1274;98547;-77
2022/01/25 07:54:42;;;;;;;29.30;16.30;;;;;;;2.53;85.26;101471.14;88209;1274;88674;-77
2022/01/25 07:56:52;;;;;;;32.60;18.50;;;;;;;2.52;85.35;101468.02;88193;1274;94645;-77
2022/01/25 07:59:04;;;;;;;30.60;17.90;;;;;;;2.52;85.39;101467.91;88140;1274;81369;-76
2022/01/25 08:01:17;;;;;;;31.60;18.90;;;;;;;2.52;85.49;101464.83;88188;1274;80978;-76
2022/01/25 08:03:29;;;;;;;29.10;16.80;;;;;;;2.59;85.31;101468.23;88125;1276;98509;-68
2022/01/25 08:05:45;;;;;;;27.50;16.70;;;;;;;2.64;85.48;101468.78;88345;1265;86302;-66
2022/01/25 08:07:58;;;;;;;29.80;17.20;;;;;;;2.63;85.41;101464.91;88259;1274;95281;-65
2022/01/25 08:10:08;;;;;;;25.90;16.80;;;;;;;2.67;85.40;101463.05;88241;1273;79264;-65
2022/01/25 08:12:22;;;;;;;27.00;16.60;;;;;;;2.70;85.38;101466.50;88285;1274;81859;-67
2022/01/25 08:14:33;;;;;;;25.30;16.80;;;;;;;2.66;85.49;101468.10;88283;1273;98476;-66
2022/01/25 08:16:44;;;;;;;28.40;17.00;;;;;;;2.68;85.41;101466.88;88281;1273;89173;-76
2022/01/25 08:18:54;;;;;;;26.50;17.10;;;;;;;2.64;85.37;101467.35;88257;1273;95963;-76
2022/01/25 08:21:05;;;;;;;23.70;15.80;;;;;;;2.65;85.46;101464.94;88236;1273;79515;-66
2022/01/25 08:23:19;;;;;;;25.40;15.10;;;;;;;2.64;85.40;101455.75;88217;1273;83483;-65
2022/01/25 08:25:31;;;;;;;25.90;16.00;;;;;;;2.57;85.45;101450.43;88289;1274;98630;-65
2022/01/25 08:27:41;;;;;;;23.80;15.40;;;;;;;2.63;85.53;101447.87;88290;1274;86805;-67
2022/01/25 08:29:54;;;;;;;26.10;16.40;;;;;;;2.63;85.41;101449.95;88229;1273;94847;-78
2022/01/25 08:32:07;;;;;;;25.10;15.30;;;;;;;2.59;85.52;101443.84;88296;1273;78963;-78
2022/01/25 08:34:16;;;;;;;22.10;14.10;;;;;;;2.62;85.61;101443.49;88307;1274;81840;-77
2022/01/25 08:36:26;;;;;;;26.60;16.00;;;;;;;2.69;85.52;101439.61;88361;1274;98634;-78
2022/01/25 08:38:39;;;;;;;22.90;14.60;;;;;;;2.78;85.47;101443.01;88329;1273;88068;-77
2022/01/25 08:40:52;;;;;;;22.00;15.60;;;;;;;2.82;85.50;101442.31;88287;1273;95582;-67
2022/01/25 08:43:08;;;;;;;25.30;15.00;;;;;;;2.86;85.47;101440.27;88303;1274;79648;-67
2022/01/25 08:45:18;;;;;;;23.00;14.80;;;;;;;2.90;85.43;101445.46;88357;1273;82895;-66
2022/01/25 08:47:28;;;;;;;22.10;14.30;;;;;;;2.95;85.30;101443.85;88144;1276;97674;-67
2022/01/25 08:49:39;;;;;;;22.00;13.90;;;;;;;3.01;85.20;101440.23;88296;1274;87991;-68
2022/01/25 08:51:49;;;;;;;20.40;13.20;;;;;;;3.01;85.29;101428.64;88337;1273;93889;-80
2022/01/25 08:54:01;;;;;;;23.70;14.50;;;;;;;3.05;85.22;101429.77;88354;1273;81065;-78
2022/01/25 08:56:14;;;;;;;21.30;14.60;;;;;;;3.07;85.23;101426.38;88317;1273;82970;-67
2022/01/25 08:58:27;;;;;;;22.10;13.50;;;;;;;3.08;85.13;101418.64;88272;1274;99126;-67
2022/01/25 09:00:41;;;;;;;19.20;13.20;;;;;;;3.09;85.01;101423.21;88292;1272;86883;-67
2022/01/25 09:03:02;;;;;;;20.80;13.80;;;;;;;3.05;85.27;101423.15;88143;1276;97459;-66
2022/01/25 09:05:15;;;;;;;20.50;13.80;;;;;;;3.02;85.28;101424.99;88252;1273;79005;-67
2022/01/25 09:07:23;;;;;;;21.30;14.20;;;;;;;3.00;85.33;101422.61;88251;1273;81835;-67
2022/01/25 09:09:36;;;;;;;21.50;13.30;;;;;;;3.01;85.46;101420.05;88277;1274;100089;-68
2022/01/25 09:11:46;;;;;;;20.10;13.30;;;;;;;2.98;85.33;101413.33;88257;1274;87885;-68
2022/01/25 09:13:58;;;;;;;20.80;13.60;;;;;;;2.90;85.28;101406.45;88259;1273;95518;-67
2022/01/25 09:16:08;;;;;;;18.90;12.10;;;;;;;2.93;85.48;101404.66;88280;1273;81106;-67
2022/01/25 09:18:20;;;;;;;18.70;12.90;;;;;;;2.98;85.58;101403.02;88178;1274;82542;-65
2022/01/25 09:20:29;;;;;;;18.90;12.00;;;;;;;3.06;85.48;101404.05;88229;1273;99052;-80
2022/01/25 09:22:41;;;;;;;17.40;11.90;;;;;;;3.09;85.37;101399.75;88249;1273;88200;-78
2022/01/25 09:24:54;;;;;;;18.20;12.40;;;;;;;3.09;85.52;101402.73;88285;1274;94110;-65
2022/01/25 09:27:04;;;;;;;17.20;12.00;;;;;;;3.11;85.42;101404.73;88256;1273;80571;-63
2022/01/25 09:29:17;;;;;;;17.20;12.10;;;;;;;3.05;85.63;101401.09;88252;1273;80995;-66
2022/01/25 09:31:26;;;;;;;20.30;13.40;;;;;;;3.08;85.64;101407.14;88247;1273;98640;-64
2022/01/25 09:33:38;;;;;;;17.60;12.10;;;;;;;3.07;85.48;101413.63;88184;1274;91807;-63
2022/01/25 09:35:54;;;;;;;18.60;13.80;;;;;;;3.09;85.48;101413.95;88278;1273;94807;-62
2022/01/25 09:38:03;;;;;;;18.10;12.60;;;;;;;3.13;85.42;101412.95;88240;1274;78566;-66
2022/01/25 09:40:17;;;;;;;17.10;12.50;;;;;;;3.06;85.56;101412.04;88198;1273;83423;-78
2022/01/25 09:42:28;;;;;;;17.00;13.00;;;;;;;3.07;85.60;101408.96;88281;1273;99508;-79
2022/01/25 09:44:39;;;;;;;18.10;12.90;;;;;;;3.08;85.65;101409.27;88190;1273;86941;-80
2022/01/25 09:46:56;;;;;;;17.90;12.80;;;;;;;3.07;85.81;101413.05;88249;1273;95580;-62
2022/01/25 09:49:06;;;;;;;16.40;12.50;;;;;;;3.09;85.77;101420.92;88261;1274;79496;-64
2022/01/25 09:51:21;;;;;;;16.20;12.40;;;;;;;3.04;85.71;101415.75;88184;1274;84232;-64
2022/01/25 09:53:33;;;;;;;16.20;11.60;;;;;;;3.12;85.69;101412.66;88309;1274;98049;-81
2022/01/25 09:55:46;;;;;;;17.10;12.30;;;;;;;3.09;85.67;101413.41;88234;1273;87164;-80
2022/01/25 09:57:56;;;;;;;17.10;11.70;;;;;;;3.11;85.72;101407.03;88313;1272;94010;-81
2022/01/25 10:00:14;;;;;;;14.90;11.30;;;;;;;3.14;85.78;101401.31;88313;1273;78541;-63
2022/01/25 10:02:48;;;;;;;15.40;11.90;;;;;;;3.21;85.90;101403.98;88271;1274;79888;-63
2022/01/25 10:04:58;;;;;;;17.70;13.40;;;;;;;3.22;85.73;101401.71;88209;1273;99582;-79
2022/01/25 10:07:11;;;;;;;16.90;12.00;;;;;;;3.21;85.80;101399.65;88277;1273;86810;-80
2022/01/25 10:09:21;;;;;;;24.60;17.00;;;;;;;3.24;85.71;101397.15;88283;1273;93536;-79
2022/01/25 10:11:38;;;;;;;16.10;12.20;;;;;;;3.29;85.72;101392.48;88243;1273;79908;-79
2022/01/25 10:13:51;;;;;;;16.30;12.20;;;;;;;3.22;85.97;101392.64;88311;1273;81328;-63
2022/01/25 10:16:05;;;;;;;14.00;11.50;;;;;;;3.26;85.82;101391.60;88297;1273;98859;-81
2022/01/25 10:18:15;;;;;;;14.90;10.80;;;;;;;3.33;85.79;101395.84;88291;1274;89391;-78
2022/01/25 10:20:33;;;;;;;14.70;11.20;;;;;;;3.33;86.00;101396.94;88219;1273;95860;-76
2022/01/25 10:22:47;;;;;;;15.90;11.90;;;;;;;3.40;85.83;101396.56;88248;1273;80014;-78
2022/01/25 10:25:01;;;;;;;15.60;12.00;;;;;;;3.47;85.76;101396.06;88261;1272;82601;-73
2022/01/25 10:27:10;;;;;;;15.30;11.80;;;;;;;3.45;85.83;101396.20;88222;1273;99142;-71
2022/01/25 10:29:24;;;;;;;16.90;12.30;;;;;;;3.44;86.01;101390.39;88255;1273;86855;-70
2022/01/25 10:31:44;;;;;;;;;;;;;;;3.44;85.78;101386.85;88249;1273;95520;-64
2022/01/25 10:33:58;;;;;;;13.40;10.20;;;;;;;3.46;85.81;101388.74;88262;1273;80441;-67
2022/01/25 10:36:16;;;;;;;15.10;11.90;;;;;;;3.41;85.77;101382.29;88228;1274;80808;-70
2022/01/25 10:38:31;;;;;;;17.60;12.20;;;;;;;3.40;85.95;101385.88;88234;1273;97694;-73
2022/01/25 10:40:44;;;;;;;14.90;11.30;;;;;;;3.36;85.98;101387.66;88255;1274;88341;-71
2022/01/25 10:42:56;;;;;;;17.00;12.60;;;;;;;3.44;85.84;101390.42;88265;1273;93477;-74
2022/01/25 10:45:22;;;;;;;19.70;12.30;;;;;;;3.47;85.92;101387.27;88255;1274;80912;-66
2022/01/25 10:47:57;;;;;;;18.10;13.00;;;;;;;3.60;85.76;101375.23;88282;1273;81811;-66
2022/01/25 10:50:20;;;;;;;16.70;12.60;;;;;;;3.62;85.74;101369.92;88271;1272;99786;-76
2022/01/25 10:52:31;;;;;;;15.10;11.00;;;;;;;3.63;85.78;101376.95;88178;1276;87183;-75
2022/01/25 10:54:44;;;;;;;18.60;13.40;;;;;;;3.62;85.82;101378.27;88246;1273;95285;-66
2022/01/25 10:56:59;;;;;;;14.60;10.30;;;;;;;3.62;85.89;101378.30;88288;1273;78929;-65
2022/01/25 10:59:17;;;;;;;22.00;13.80;;;;;;;3.64;85.92;101376.86;88292;1273;83309;-74
2022/01/25 11:01:39;;;;;;;15.90;11.20;;;;;;;3.69;85.92;101378.24;88271;1273;97651;-67
2022/01/25 11:03:50;;;;;;;18.20;10.40;;;;;;;3.70;86.05;101377.27;88288;1273;88364;-76
2022/01/25 11:06:14;;;;;;;18.10;10.70;;;;;;;3.71;85.94;101373.98;88160;1274;93893;-67
2022/01/25 11:08:28;;;;;;;23.70;14.50;;;;;;;3.84;85.95;101370.83;88252;1273;78603;-67
2022/01/25 11:10:52;;;;;;;13.40;9.70;;;;;;;3.88;85.98;101369.95;88277;1273;82321;-72
2022/01/25 11:13:21;;;;;;;11.90;8.70;;;;;;;3.91;86.06;101367.23;88263;1273;97136;-74
2022/01/25 11:15:31;;;;;;;10.70;8.60;;;;;;;3.97;85.87;101365.65;88264;1273;88475;-76
2022/01/25 11:17:45;;;;;;;11.20;9.10;;;;;;;3.92;85.77;101366.04;88295;1273;94177;-75
2022/01/25 11:20:00;;;;;;;13.00;9.20;;;;;;;4.05;85.71;101360.72;88214;1273;80855;-74
2022/01/25 11:22:19;;;;;;;13.60;10.00;;;;;;;4.05;85.71;101366.02;88228;1273;82722;-75